sensor_id;sensor_type;location;lat;lon;timestamp;P1;durP1;ratioP1;P2;durP2;ratioP2
2225;SDS011;1119;48.288;8.726;2022-09-03T00:00:21;6.93;;;6.17;;
2225;SDS011;1119;48.288;8.726;2022-09-03T00:02:51;6.47;;;6.07;;
2225;SDS011;1119;48.288;8.726;2022-09-03T00:05:28;7.20;;;6.80;;
2225;SDS011;1119;48.288;8.726;2022-09-03T00:08:06;6.47;;;6.10;;
2225;SDS011;1119;48.288;8.726;2022-09-03T00:10:40;7.00;;;6.60;;
2225;SDS011;1119;48.288;8.726;2022-09-03T00:13:13;6.10;;;5.80;;
2225;SDS011;1119;48.288;8.726;2022-09-03T00:15:51;6.13;;;5.83;;
2225;SDS011;1119;48.288;8.726;2022-09-03T00:18:22;6.50;;;6.10;;
2225;SDS011;1119;48.288;8.726;2022-09-03T00:20:54;6.30;;;5.90;;
2225;SDS011;1119;48.288;8.726;2022-09-03T00:23:34;5.83;;;5.43;;
2225;SDS011;1119;48.288;8.726;2022-09-03T00:26:15;7.63;;;7.00;;
2225;SDS011;1119;48.288;8.726;2022-09-03T00:28:50;6.83;;;6.33;;
2225;SDS011;1119;48.288;8.726;2022-09-03T00:31:26;6.03;;;5.70;;
2225;SDS011;1119;48.288;8.726;2022-09-03T00:34:01;6.13;;;5.67;;
2225;SDS011;1119;48.288;8.726;2022-09-03T00:36:35;5.53;;;5.23;;
2225;SDS011;1119;48.288;8.726;2022-09-03T00:39:13;6.43;;;6.03;;
2225;SDS011;1119;48.288;8.726;2022-09-03T00:41:44;6.60;;;6.20;;
2225;SDS011;1119;48.288;8.726;2022-09-03T00:47:25;6.20;;;5.90;;
2225;SDS011;1119;48.288;8.726;2022-09-03T00:50:02;6.40;;;6.10;;
2225;SDS011;1119;48.288;8.726;2022-09-03T00:52:45;6.77;;;6.03;;
2225;SDS011;1119;48.288;8.726;2022-09-03T00:55:25;6.60;;;6.20;;
2225;SDS011;1119;48.288;8.726;2022-09-03T00:58:05;5.77;;;5.47;;
2225;SDS011;1119;48.288;8.726;2022-09-03T01:00:55;6.17;;;5.73;;
2225;SDS011;1119;48.288;8.726;2022-09-03T01:03:24;7.27;;;6.87;;
2225;SDS011;1119;48.288;8.726;2022-09-03T01:06:05;6.30;;;6.00;;
2225;SDS011;1119;48.288;8.726;2022-09-03T01:08:54;7.40;;;6.97;;
2225;SDS011;1119;48.288;8.726;2022-09-03T01:11:55;6.27;;;5.87;;
2225;SDS011;1119;48.288;8.726;2022-09-03T01:14:33;6.93;;;6.43;;
2225;SDS011;1119;48.288;8.726;2022-09-03T01:17:15;6.43;;;5.93;;
2225;SDS011;1119;48.288;8.726;2022-09-03T01:20:02;6.93;;;6.33;;
2225;SDS011;1119;48.288;8.726;2022-09-03T01:22:52;7.17;;;6.63;;
2225;SDS011;1119;48.288;8.726;2022-09-03T01:25:51;9.30;;;8.70;;
2225;SDS011;1119;48.288;8.726;2022-09-03T01:28:28;8.67;;;7.80;;
2225;SDS011;1119;48.288;8.726;2022-09-03T01:31:12;7.50;;;7.10;;
2225;SDS011;1119;48.288;8.726;2022-09-03T01:33:51;8.13;;;7.63;;
2225;SDS011;1119;48.288;8.726;2022-09-03T01:36:27;7.57;;;7.07;;
2225;SDS011;1119;48.288;8.726;2022-09-03T01:39:02;7.83;;;7.33;;
2225;SDS011;1119;48.288;8.726;2022-09-03T01:41:34;7.83;;;7.27;;
2225;SDS011;1119;48.288;8.726;2022-09-03T01:44:34;7.83;;;7.33;;
2225;SDS011;1119;48.288;8.726;2022-09-03T01:47:32;7.80;;;6.40;;
2225;SDS011;1119;48.288;8.726;2022-09-03T01:50:19;7.27;;;6.57;;
2225;SDS011;1119;48.288;8.726;2022-09-03T01:53:02;7.60;;;7.20;;
2225;SDS011;1119;48.288;8.726;2022-09-03T01:55:41;7.73;;;7.23;;
2225;SDS011;1119;48.288;8.726;2022-09-03T01:58:22;8.13;;;7.67;;
2225;SDS011;1119;48.288;8.726;2022-09-03T02:00:59;6.77;;;6.40;;
2225;SDS011;1119;48.288;8.726;2022-09-03T02:03:34;7.93;;;7.53;;
2225;SDS011;1119;48.288;8.726;2022-09-03T02:06:05;7.47;;;6.97;;
2225;SDS011;1119;48.288;8.726;2022-09-03T02:08:33;7.20;;;6.80;;
2225;SDS011;1119;48.288;8.726;2022-09-03T02:11:00;7.57;;;7.10;;
2225;SDS011;1119;48.288;8.726;2022-09-03T02:13:31;8.00;;;7.40;;
2225;SDS011;1119;48.288;8.726;2022-09-03T02:16:05;7.47;;;6.97;;
2225;SDS011;1119;48.288;8.726;2022-09-03T02:18:38;7.80;;;7.40;;
2225;SDS011;1119;48.288;8.726;2022-09-03T02:21:10;8.53;;;7.83;;
2225;SDS011;1119;48.288;8.726;2022-09-03T02:23:42;8.77;;;8.27;;
2225;SDS011;1119;48.288;8.726;2022-09-03T02:26:10;7.70;;;7.20;;
2225;SDS011;1119;48.288;8.726;2022-09-03T02:28:42;7.83;;;7.23;;
2225;SDS011;1119;48.288;8.726;2022-09-03T02:31:11;7.53;;;7.03;;
2225;SDS011;1119;48.288;8.726;2022-09-03T02:33:38;7.83;;;7.37;;
2225;SDS011;1119;48.288;8.726;2022-09-03T02:36:09;7.13;;;6.63;;
2225;SDS011;1119;48.288;8.726;2022-09-03T02:38:40;7.33;;;6.63;;
2225;SDS011;1119;48.288;8.726;2022-09-03T02:41:09;7.30;;;6.90;;
2225;SDS011;1119;48.288;8.726;2022-09-03T02:43:40;8.10;;;7.50;;
2225;SDS011;1119;48.288;8.726;2022-09-03T02:46:13;7.80;;;7.30;;
2225;SDS011;1119;48.288;8.726;2022-09-03T02:48:47;7.33;;;6.93;;
2225;SDS011;1119;48.288;8.726;2022-09-03T02:51:14;7.90;;;7.10;;
2225;SDS011;1119;48.288;8.726;2022-09-03T02:53:41;7.87;;;7.10;;
2225;SDS011;1119;48.288;8.726;2022-09-03T02:56:09;7.40;;;6.83;;
2225;SDS011;1119;48.288;8.726;2022-09-03T02:58:36;7.00;;;6.40;;
2225;SDS011;1119;48.288;8.726;2022-09-03T03:01:04;7.73;;;7.23;;
2225;SDS011;1119;48.288;8.726;2022-09-03T03:03:33;6.87;;;6.37;;
2225;SDS011;1119;48.288;8.726;2022-09-03T03:06:00;7.00;;;6.60;;
2225;SDS011;1119;48.288;8.726;2022-09-03T03:08:30;6.60;;;6.20;;
2225;SDS011;1119;48.288;8.726;2022-09-03T03:10:59;7.10;;;6.70;;
2225;SDS011;1119;48.288;8.726;2022-09-03T03:13:26;7.07;;;6.67;;
2225;SDS011;1119;48.288;8.726;2022-09-03T03:15:55;5.97;;;5.57;;
2225;SDS011;1119;48.288;8.726;2022-09-03T03:18:23;7.30;;;6.90;;
2225;SDS011;1119;48.288;8.726;2022-09-03T03:20:52;6.30;;;5.77;;
2225;SDS011;1119;48.288;8.726;2022-09-03T03:23:19;6.13;;;5.70;;
2225;SDS011;1119;48.288;8.726;2022-09-03T03:25:47;6.40;;;5.83;;
2225;SDS011;1119;48.288;8.726;2022-09-03T03:28:14;5.93;;;5.53;;
2225;SDS011;1119;48.288;8.726;2022-09-03T03:30:44;6.63;;;6.23;;
2225;SDS011;1119;48.288;8.726;2022-09-03T03:33:12;5.60;;;5.30;;
2225;SDS011;1119;48.288;8.726;2022-09-03T03:35:39;6.43;;;6.03;;
2225;SDS011;1119;48.288;8.726;2022-09-03T03:38:08;7.10;;;6.63;;
2225;SDS011;1119;48.288;8.726;2022-09-03T03:40:36;6.20;;;5.70;;
2225;SDS011;1119;48.288;8.726;2022-09-03T03:43:04;5.63;;;5.33;;
2225;SDS011;1119;48.288;8.726;2022-09-03T03:45:31;6.20;;;5.90;;
2225;SDS011;1119;48.288;8.726;2022-09-03T03:47:58;6.30;;;5.80;;
2225;SDS011;1119;48.288;8.726;2022-09-03T03:50:25;6.87;;;6.57;;
2225;SDS011;1119;48.288;8.726;2022-09-03T03:52:52;6.60;;;6.20;;
2225;SDS011;1119;48.288;8.726;2022-09-03T03:55:21;7.40;;;6.90;;
2225;SDS011;1119;48.288;8.726;2022-09-03T03:57:49;7.37;;;6.87;;
2225;SDS011;1119;48.288;8.726;2022-09-03T04:00:16;6.70;;;6.30;;
2225;SDS011;1119;48.288;8.726;2022-09-03T04:02:43;6.97;;;6.57;;
2225;SDS011;1119;48.288;8.726;2022-09-03T04:05:11;7.50;;;6.93;;
2225;SDS011;1119;48.288;8.726;2022-09-03T04:07:38;6.77;;;6.30;;
2225;SDS011;1119;48.288;8.726;2022-09-03T04:10:06;8.00;;;7.50;;
2225;SDS011;1119;48.288;8.726;2022-09-03T04:12:36;7.13;;;6.63;;
2225;SDS011;1119;48.288;8.726;2022-09-03T04:15:03;6.40;;;5.93;;
2225;SDS011;1119;48.288;8.726;2022-09-03T04:17:31;7.80;;;7.30;;
2225;SDS011;1119;48.288;8.726;2022-09-03T04:19:58;7.10;;;6.70;;
2225;SDS011;1119;48.288;8.726;2022-09-03T04:22:26;7.85;;;7.10;;
2225;SDS011;1119;48.288;8.726;2022-09-03T04:24:54;6.67;;;6.27;;
2225;SDS011;1119;48.288;8.726;2022-09-03T04:27:21;7.40;;;7.00;;
2225;SDS011;1119;48.288;8.726;2022-09-03T04:29:50;8.10;;;7.53;;
2225;SDS011;1119;48.288;8.726;2022-09-03T04:32:17;7.00;;;6.60;;
2225;SDS011;1119;48.288;8.726;2022-09-03T04:35:02;7.00;;;6.40;;
2225;SDS011;1119;48.288;8.726;2022-09-03T04:37:30;6.50;;;6.10;;
2225;SDS011;1119;48.288;8.726;2022-09-03T04:39:58;7.13;;;6.73;;
2225;SDS011;1119;48.288;8.726;2022-09-03T04:42:26;7.53;;;7.03;;
2225;SDS011;1119;48.288;8.726;2022-09-03T04:44:54;7.37;;;6.80;;
2225;SDS011;1119;48.288;8.726;2022-09-03T04:47:21;6.37;;;6.00;;
2225;SDS011;1119;48.288;8.726;2022-09-03T04:49:49;7.90;;;7.40;;
2225;SDS011;1119;48.288;8.726;2022-09-03T04:52:16;6.97;;;6.50;;
2225;SDS011;1119;48.288;8.726;2022-09-03T04:54:43;7.40;;;6.80;;
2225;SDS011;1119;48.288;8.726;2022-09-03T04:57:10;7.53;;;7.13;;
2225;SDS011;1119;48.288;8.726;2022-09-03T04:59:37;7.50;;;6.90;;
2225;SDS011;1119;48.288;8.726;2022-09-03T05:02:08;7.47;;;6.97;;
2225;SDS011;1119;48.288;8.726;2022-09-03T05:04:35;6.63;;;6.33;;
2225;SDS011;1119;48.288;8.726;2022-09-03T05:07:02;7.13;;;6.73;;
2225;SDS011;1119;48.288;8.726;2022-09-03T05:09:29;10.00;;;7.60;;
2225;SDS011;1119;48.288;8.726;2022-09-03T05:11:56;7.73;;;7.23;;
2225;SDS011;1119;48.288;8.726;2022-09-03T05:14:23;7.27;;;6.77;;
2225;SDS011;1119;48.288;8.726;2022-09-03T05:16:50;6.90;;;6.47;;
2225;SDS011;1119;48.288;8.726;2022-09-03T05:19:19;7.97;;;7.37;;
2225;SDS011;1119;48.288;8.726;2022-09-03T05:21:46;8.07;;;7.47;;
2225;SDS011;1119;48.288;8.726;2022-09-03T05:24:13;7.70;;;7.20;;
2225;SDS011;1119;48.288;8.726;2022-09-03T05:26:41;7.77;;;7.27;;
2225;SDS011;1119;48.288;8.726;2022-09-03T05:29:08;8.13;;;7.50;;
2225;SDS011;1119;48.288;8.726;2022-09-03T05:31:35;8.40;;;7.70;;
2225;SDS011;1119;48.288;8.726;2022-09-03T05:34:04;7.20;;;6.70;;
2225;SDS011;1119;48.288;8.726;2022-09-03T05:36:36;7.23;;;6.73;;
2225;SDS011;1119;48.288;8.726;2022-09-03T05:39:03;6.70;;;6.20;;
2225;SDS011;1119;48.288;8.726;2022-09-03T05:41:31;7.93;;;7.37;;
2225;SDS011;1119;48.288;8.726;2022-09-03T05:43:59;7.73;;;7.23;;
2225;SDS011;1119;48.288;8.726;2022-09-03T05:46:28;7.90;;;7.30;;
2225;SDS011;1119;48.288;8.726;2022-09-03T05:48:57;8.33;;;7.63;;
2225;SDS011;1119;48.288;8.726;2022-09-03T05:51:26;7.80;;;7.10;;
2225;SDS011;1119;48.288;8.726;2022-09-03T05:53:55;7.83;;;7.33;;
2225;SDS011;1119;48.288;8.726;2022-09-03T05:56:24;7.70;;;7.00;;
2225;SDS011;1119;48.288;8.726;2022-09-03T05:58:54;8.33;;;7.83;;
2225;SDS011;1119;48.288;8.726;2022-09-03T06:01:25;7.60;;;7.10;;
2225;SDS011;1119;48.288;8.726;2022-09-03T06:03:54;8.70;;;6.53;;
2225;SDS011;1119;48.288;8.726;2022-09-03T06:06:25;6.50;;;6.00;;
2225;SDS011;1119;48.288;8.726;2022-09-03T06:08:56;6.10;;;5.70;;
2225;SDS011;1119;48.288;8.726;2022-09-03T06:11:24;6.63;;;6.23;;
2225;SDS011;1119;48.288;8.726;2022-09-03T06:13:53;7.30;;;6.70;;
2225;SDS011;1119;48.288;8.726;2022-09-03T06:16:21;7.03;;;6.60;;
2225;SDS011;1119;48.288;8.726;2022-09-03T06:18:49;7.33;;;6.63;;
2225;SDS011;1119;48.288;8.726;2022-09-03T06:21:17;6.20;;;5.80;;
2225;SDS011;1119;48.288;8.726;2022-09-03T06:23:47;5.57;;;5.27;;
2225;SDS011;1119;48.288;8.726;2022-09-03T06:26:17;7.50;;;6.90;;
2225;SDS011;1119;48.288;8.726;2022-09-03T06:28:45;6.67;;;6.27;;
2225;SDS011;1119;48.288;8.726;2022-09-03T06:31:14;6.67;;;6.27;;
2225;SDS011;1119;48.288;8.726;2022-09-03T06:33:43;6.60;;;6.20;;
2225;SDS011;1119;48.288;8.726;2022-09-03T06:36:13;6.67;;;6.27;;
2225;SDS011;1119;48.288;8.726;2022-09-03T06:38:42;6.40;;;6.00;;
2225;SDS011;1119;48.288;8.726;2022-09-03T06:41:10;5.67;;;5.37;;
2225;SDS011;1119;48.288;8.726;2022-09-03T06:43:40;5.87;;;5.57;;
2225;SDS011;1119;48.288;8.726;2022-09-03T06:46:10;6.03;;;5.73;;
2225;SDS011;1119;48.288;8.726;2022-09-03T06:48:39;5.43;;;5.03;;
2225;SDS011;1119;48.288;8.726;2022-09-03T06:51:08;6.20;;;5.80;;
2225;SDS011;1119;48.288;8.726;2022-09-03T06:53:37;5.80;;;5.50;;
2225;SDS011;1119;48.288;8.726;2022-09-03T06:56:07;6.20;;;5.80;;
2225;SDS011;1119;48.288;8.726;2022-09-03T06:58:37;5.83;;;5.53;;
2225;SDS011;1119;48.288;8.726;2022-09-03T07:01:08;5.90;;;5.60;;
2225;SDS011;1119;48.288;8.726;2022-09-03T07:03:38;4.93;;;4.70;;
2225;SDS011;1119;48.288;8.726;2022-09-03T07:06:08;5.43;;;4.90;;
2225;SDS011;1119;48.288;8.726;2022-09-03T07:08:38;5.00;;;4.60;;
2225;SDS011;1119;48.288;8.726;2022-09-03T07:11:06;5.40;;;5.10;;
2225;SDS011;1119;48.288;8.726;2022-09-03T07:13:36;4.73;;;4.50;;
2225;SDS011;1119;48.288;8.726;2022-09-03T07:16:07;5.10;;;4.90;;
2225;SDS011;1119;48.288;8.726;2022-09-03T07:18:36;4.87;;;4.53;;
2225;SDS011;1119;48.288;8.726;2022-09-03T07:21:05;5.63;;;5.13;;
2225;SDS011;1119;48.288;8.726;2022-09-03T07:23:34;4.53;;;4.33;;
2225;SDS011;1119;48.288;8.726;2022-09-03T07:26:04;5.07;;;4.87;;
2225;SDS011;1119;48.288;8.726;2022-09-03T07:28:34;4.03;;;3.83;;
2225;SDS011;1119;48.288;8.726;2022-09-03T07:31:04;4.17;;;3.97;;
2225;SDS011;1119;48.288;8.726;2022-09-03T07:33:36;4.57;;;4.37;;
2225;SDS011;1119;48.288;8.726;2022-09-03T07:36:04;4.30;;;4.10;;
2225;SDS011;1119;48.288;8.726;2022-09-03T07:38:33;4.17;;;3.97;;
2225;SDS011;1119;48.288;8.726;2022-09-03T07:41:01;4.20;;;3.90;;
2225;SDS011;1119;48.288;8.726;2022-09-03T07:43:32;4.33;;;4.13;;
2225;SDS011;1119;48.288;8.726;2022-09-03T07:46:01;4.40;;;4.20;;
2225;SDS011;1119;48.288;8.726;2022-09-03T07:48:29;4.80;;;4.63;;
2225;SDS011;1119;48.288;8.726;2022-09-03T07:50:57;4.27;;;4.07;;
2225;SDS011;1119;48.288;8.726;2022-09-03T07:53:26;4.93;;;4.63;;
2225;SDS011;1119;48.288;8.726;2022-09-03T07:55:59;5.27;;;4.70;;
2225;SDS011;1119;48.288;8.726;2022-09-03T07:58:28;4.83;;;4.53;;
2225;SDS011;1119;48.288;8.726;2022-09-03T08:00:56;4.90;;;4.70;;
2225;SDS011;1119;48.288;8.726;2022-09-03T08:03:24;5.43;;;5.17;;
2225;SDS011;1119;48.288;8.726;2022-09-03T08:05:52;5.10;;;4.73;;
2225;SDS011;1119;48.288;8.726;2022-09-03T08:08:19;5.70;;;5.30;;
2225;SDS011;1119;48.288;8.726;2022-09-03T08:10:47;5.13;;;4.93;;
2225;SDS011;1119;48.288;8.726;2022-09-03T08:13:15;5.67;;;5.37;;
2225;SDS011;1119;48.288;8.726;2022-09-03T08:15:42;5.20;;;5.00;;
2225;SDS011;1119;48.288;8.726;2022-09-03T08:18:09;4.77;;;4.63;;
2225;SDS011;1119;48.288;8.726;2022-09-03T08:20:36;5.83;;;5.63;;
2225;SDS011;1119;48.288;8.726;2022-09-03T08:23:05;5.30;;;5.10;;
2225;SDS011;1119;48.288;8.726;2022-09-03T08:25:32;5.30;;;5.10;;
2225;SDS011;1119;48.288;8.726;2022-09-03T08:27:59;5.90;;;5.60;;
2225;SDS011;1119;48.288;8.726;2022-09-03T08:30:27;5.17;;;4.97;;
2225;SDS011;1119;48.288;8.726;2022-09-03T08:32:54;4.90;;;4.70;;
2225;SDS011;1119;48.288;8.726;2022-09-03T08:35:21;5.27;;;5.07;;
2225;SDS011;1119;48.288;8.726;2022-09-03T08:37:48;4.73;;;4.53;;
2225;SDS011;1119;48.288;8.726;2022-09-03T08:40:20;5.00;;;4.80;;
2225;SDS011;1119;48.288;8.726;2022-09-03T08:42:55;5.07;;;4.87;;
2225;SDS011;1119;48.288;8.726;2022-09-03T08:45:32;5.33;;;5.13;;
2225;SDS011;1119;48.288;8.726;2022-09-03T08:48:03;5.27;;;5.07;;
2225;SDS011;1119;48.288;8.726;2022-09-03T08:50:35;5.03;;;4.83;;
2225;SDS011;1119;48.288;8.726;2022-09-03T08:53:08;4.90;;;4.70;;
2225;SDS011;1119;48.288;8.726;2022-09-03T08:55:46;4.67;;;4.47;;
2225;SDS011;1119;48.288;8.726;2022-09-03T08:58:18;5.30;;;5.00;;
2225;SDS011;1119;48.288;8.726;2022-09-03T09:00:49;5.27;;;5.07;;
2225;SDS011;1119;48.288;8.726;2022-09-03T09:03:32;5.23;;;5.03;;
2225;SDS011;1119;48.288;8.726;2022-09-03T09:06:11;4.07;;;3.90;;
2225;SDS011;1119;48.288;8.726;2022-09-03T09:08:49;5.23;;;4.97;;
2225;SDS011;1119;48.288;8.726;2022-09-03T09:11:39;4.53;;;4.33;;
2225;SDS011;1119;48.288;8.726;2022-09-03T09:14:17;5.80;;;5.50;;
2225;SDS011;1119;48.288;8.726;2022-09-03T09:16:52;4.73;;;4.43;;
2225;SDS011;1119;48.288;8.726;2022-09-03T09:19:32;6.07;;;5.77;;
2225;SDS011;1119;48.288;8.726;2022-09-03T09:22:12;5.13;;;4.83;;
2225;SDS011;1119;48.288;8.726;2022-09-03T09:24:46;5.73;;;5.47;;
2225;SDS011;1119;48.288;8.726;2022-09-03T09:27:17;5.07;;;4.87;;
2225;SDS011;1119;48.288;8.726;2022-09-03T09:29:46;5.43;;;5.03;;
2225;SDS011;1119;48.288;8.726;2022-09-03T09:32:15;5.37;;;4.87;;
2225;SDS011;1119;48.288;8.726;2022-09-03T09:34:44;5.23;;;4.93;;
2225;SDS011;1119;48.288;8.726;2022-09-03T09:37:13;5.40;;;4.93;;
2225;SDS011;1119;48.288;8.726;2022-09-03T09:39:52;5.00;;;4.50;;
2225;SDS011;1119;48.288;8.726;2022-09-03T09:42:23;5.40;;;5.20;;
2225;SDS011;1119;48.288;8.726;2022-09-03T09:44:54;4.60;;;4.37;;
2225;SDS011;1119;48.288;8.726;2022-09-03T09:47:21;5.23;;;5.03;;
2225;SDS011;1119;48.288;8.726;2022-09-03T09:49:53;5.30;;;5.10;;
2225;SDS011;1119;48.288;8.726;2022-09-03T09:52:23;5.63;;;5.43;;
2225;SDS011;1119;48.288;8.726;2022-09-03T09:55:04;5.73;;;5.43;;
2225;SDS011;1119;48.288;8.726;2022-09-03T09:57:36;5.27;;;5.07;;
2225;SDS011;1119;48.288;8.726;2022-09-03T10:00:05;5.63;;;5.23;;
2225;SDS011;1119;48.288;8.726;2022-09-03T10:02:40;5.50;;;5.10;;
2225;SDS011;1119;48.288;8.726;2022-09-03T10:05:17;5.40;;;5.10;;
2225;SDS011;1119;48.288;8.726;2022-09-03T10:07:55;4.90;;;4.60;;
2225;SDS011;1119;48.288;8.726;2022-09-03T10:10:23;5.03;;;4.83;;
2225;SDS011;1119;48.288;8.726;2022-09-03T10:12:56;4.80;;;4.60;;
2225;SDS011;1119;48.288;8.726;2022-09-03T10:15:31;4.50;;;4.30;;
2225;SDS011;1119;48.288;8.726;2022-09-03T10:18:07;5.63;;;5.23;;
2225;SDS011;1119;48.288;8.726;2022-09-03T10:20:53;5.10;;;4.70;;
2225;SDS011;1119;48.288;8.726;2022-09-03T10:23:31;5.47;;;5.07;;
2225;SDS011;1119;48.288;8.726;2022-09-03T10:26:09;8.43;;;6.07;;
2225;SDS011;1119;48.288;8.726;2022-09-03T10:28:40;7.73;;;7.00;;
2225;SDS011;1119;48.288;8.726;2022-09-03T10:31:14;7.50;;;6.87;;
2225;SDS011;1119;48.288;8.726;2022-09-03T10:34:03;7.83;;;7.23;;
2225;SDS011;1119;48.288;8.726;2022-09-03T10:36:36;6.40;;;5.53;;
2225;SDS011;1119;48.288;8.726;2022-09-03T10:39:10;9.43;;;5.97;;
2225;SDS011;1119;48.288;8.726;2022-09-03T10:41:48;5.23;;;4.93;;
2225;SDS011;1119;48.288;8.726;2022-09-03T10:44:43;4.70;;;4.40;;
2225;SDS011;1119;48.288;8.726;2022-09-03T10:47:30;5.57;;;5.07;;
2225;SDS011;1119;48.288;8.726;2022-09-03T10:50:12;4.47;;;4.10;;
2225;SDS011;1119;48.288;8.726;2022-09-03T10:52:47;4.50;;;4.30;;
2225;SDS011;1119;48.288;8.726;2022-09-03T10:55:34;3.23;;;3.13;;
2225;SDS011;1119;48.288;8.726;2022-09-03T10:58:15;3.70;;;3.40;;
2225;SDS011;1119;48.288;8.726;2022-09-03T11:01:13;3.40;;;3.20;;
2225;SDS011;1119;48.288;8.726;2022-09-03T11:03:59;3.53;;;3.43;;
2225;SDS011;1119;48.288;8.726;2022-09-03T11:06:46;3.77;;;3.67;;
2225;SDS011;1119;48.288;8.726;2022-09-03T11:09:19;3.17;;;3.03;;
2225;SDS011;1119;48.288;8.726;2022-09-03T11:11:52;2.97;;;2.87;;
2225;SDS011;1119;48.288;8.726;2022-09-03T11:14:27;3.17;;;2.73;;
2225;SDS011;1119;48.288;8.726;2022-09-03T11:17:03;4.13;;;3.83;;
2225;SDS011;1119;48.288;8.726;2022-09-03T11:19:36;3.27;;;3.07;;
2225;SDS011;1119;48.288;8.726;2022-09-03T11:22:12;3.80;;;3.70;;
2225;SDS011;1119;48.288;8.726;2022-09-03T11:24:42;3.37;;;3.07;;
2225;SDS011;1119;48.288;8.726;2022-09-03T11:27:17;4.80;;;3.27;;
2225;SDS011;1119;48.288;8.726;2022-09-03T11:29:54;3.80;;;3.60;;
2225;SDS011;1119;48.288;8.726;2022-09-03T11:32:29;3.17;;;3.07;;
2225;SDS011;1119;48.288;8.726;2022-09-03T11:35:13;4.20;;;3.80;;
2225;SDS011;1119;48.288;8.726;2022-09-03T11:37:51;3.67;;;3.57;;
2225;SDS011;1119;48.288;8.726;2022-09-03T11:40:27;4.30;;;3.90;;
2225;SDS011;1119;48.288;8.726;2022-09-03T11:43:05;4.17;;;3.87;;
2225;SDS011;1119;48.288;8.726;2022-09-03T11:45:37;3.93;;;3.63;;
2225;SDS011;1119;48.288;8.726;2022-09-03T11:48:26;4.87;;;4.47;;
2225;SDS011;1119;48.288;8.726;2022-09-03T11:51:01;5.40;;;5.10;;
2225;SDS011;1119;48.288;8.726;2022-09-03T11:53:32;4.00;;;3.80;;
2225;SDS011;1119;48.288;8.726;2022-09-03T11:56:08;3.60;;;3.40;;
2225;SDS011;1119;48.288;8.726;2022-09-03T11:58:43;3.20;;;3.00;;
2225;SDS011;1119;48.288;8.726;2022-09-03T12:01:12;3.33;;;3.20;;
2225;SDS011;1119;48.288;8.726;2022-09-03T12:03:44;3.23;;;3.03;;
2225;SDS011;1119;48.288;8.726;2022-09-03T12:09:15;3.20;;;3.07;;
2225;SDS011;1119;48.288;8.726;2022-09-03T12:12:22;3.43;;;3.30;;
2225;SDS011;1119;48.288;8.726;2022-09-03T12:15:03;4.10;;;3.67;;
2225;SDS011;1119;48.288;8.726;2022-09-03T12:17:41;5.23;;;4.83;;
2225;SDS011;1119;48.288;8.726;2022-09-03T12:20:38;3.87;;;3.67;;
2225;SDS011;1119;48.288;8.726;2022-09-03T12:23:09;5.07;;;3.53;;
2225;SDS011;1119;48.288;8.726;2022-09-03T12:25:42;3.83;;;3.47;;
2225;SDS011;1119;48.288;8.726;2022-09-03T12:28:12;3.93;;;3.73;;
2225;SDS011;1119;48.288;8.726;2022-09-03T12:30:46;2.90;;;2.80;;
2225;SDS011;1119;48.288;8.726;2022-09-03T12:33:15;5.43;;;3.80;;
2225;SDS011;1119;48.288;8.726;2022-09-03T12:35:55;3.37;;;3.07;;
2225;SDS011;1119;48.288;8.726;2022-09-03T12:38:23;3.07;;;2.93;;
2225;SDS011;1119;48.288;8.726;2022-09-03T12:40:50;3.67;;;3.50;;
2225;SDS011;1119;48.288;8.726;2022-09-03T12:43:18;3.97;;;3.40;;
2225;SDS011;1119;48.288;8.726;2022-09-03T12:45:47;2.97;;;2.87;;
2225;SDS011;1119;48.288;8.726;2022-09-03T12:48:16;3.23;;;3.13;;
2225;SDS011;1119;48.288;8.726;2022-09-03T12:50:46;2.90;;;2.80;;
2225;SDS011;1119;48.288;8.726;2022-09-03T12:53:17;2.90;;;2.80;;
2225;SDS011;1119;48.288;8.726;2022-09-03T12:55:49;2.83;;;2.73;;
2225;SDS011;1119;48.288;8.726;2022-09-03T12:58:21;2.97;;;2.87;;
2225;SDS011;1119;48.288;8.726;2022-09-03T13:00:51;3.30;;;3.10;;
2225;SDS011;1119;48.288;8.726;2022-09-03T13:03:26;3.20;;;3.10;;
2225;SDS011;1119;48.288;8.726;2022-09-03T13:05:58;3.07;;;2.90;;
2225;SDS011;1119;48.288;8.726;2022-09-03T13:08:31;3.13;;;2.93;;
2225;SDS011;1119;48.288;8.726;2022-09-03T13:11:03;3.80;;;3.60;;
2225;SDS011;1119;48.288;8.726;2022-09-03T13:13:32;2.90;;;2.80;;
2225;SDS011;1119;48.288;8.726;2022-09-03T13:16:22;3.10;;;2.90;;
2225;SDS011;1119;48.288;8.726;2022-09-03T13:19:38;3.50;;;3.30;;
2225;SDS011;1119;48.288;8.726;2022-09-03T13:22:17;3.30;;;3.20;;
2225;SDS011;1119;48.288;8.726;2022-09-03T13:25:10;3.00;;;2.80;;
2225;SDS011;1119;48.288;8.726;2022-09-03T13:27:43;3.77;;;3.67;;
2225;SDS011;1119;48.288;8.726;2022-09-03T13:30:22;3.40;;;3.30;;
2225;SDS011;1119;48.288;8.726;2022-09-03T13:32:58;3.77;;;3.63;;
2225;SDS011;1119;48.288;8.726;2022-09-03T13:35:29;2.90;;;2.80;;
2225;SDS011;1119;48.288;8.726;2022-09-03T13:38:05;3.70;;;3.50;;
2225;SDS011;1119;48.288;8.726;2022-09-03T13:40:46;3.33;;;3.20;;
2225;SDS011;1119;48.288;8.726;2022-09-03T13:43:22;3.77;;;3.60;;
2225;SDS011;1119;48.288;8.726;2022-09-03T13:45:57;2.97;;;2.87;;
2225;SDS011;1119;48.288;8.726;2022-09-03T13:48:29;2.90;;;2.80;;
2225;SDS011;1119;48.288;8.726;2022-09-03T13:51:21;3.00;;;2.90;;
2225;SDS011;1119;48.288;8.726;2022-09-03T13:53:57;3.63;;;3.30;;
2225;SDS011;1119;48.288;8.726;2022-09-03T13:56:37;3.90;;;3.70;;
2225;SDS011;1119;48.288;8.726;2022-09-03T13:59:18;3.47;;;3.37;;
2225;SDS011;1119;48.288;8.726;2022-09-03T14:02:00;3.57;;;3.47;;
2225;SDS011;1119;48.288;8.726;2022-09-03T14:04:42;3.37;;;3.17;;
2225;SDS011;1119;48.288;8.726;2022-09-03T14:07:20;2.87;;;2.77;;
2225;SDS011;1119;48.288;8.726;2022-09-03T14:09:53;3.20;;;3.10;;
2225;SDS011;1119;48.288;8.726;2022-09-03T14:12:34;3.07;;;2.90;;
2225;SDS011;1119;48.288;8.726;2022-09-03T14:15:09;3.13;;;2.93;;
2225;SDS011;1119;48.288;8.726;2022-09-03T14:17:45;3.17;;;3.07;;
2225;SDS011;1119;48.288;8.726;2022-09-03T14:20:18;3.10;;;3.00;;
2225;SDS011;1119;48.288;8.726;2022-09-03T14:22:50;3.40;;;3.27;;
2225;SDS011;1119;48.288;8.726;2022-09-03T14:25:22;3.93;;;3.73;;
2225;SDS011;1119;48.288;8.726;2022-09-03T14:27:53;3.47;;;3.37;;
2225;SDS011;1119;48.288;8.726;2022-09-03T14:30:28;3.37;;;3.27;;
2225;SDS011;1119;48.288;8.726;2022-09-03T14:33:07;3.30;;;3.20;;
2225;SDS011;1119;48.288;8.726;2022-09-03T14:35:47;6.03;;;4.13;;
2225;SDS011;1119;48.288;8.726;2022-09-03T14:38:29;3.50;;;3.40;;
2225;SDS011;1119;48.288;8.726;2022-09-03T14:41:21;3.27;;;3.17;;
2225;SDS011;1119;48.288;8.726;2022-09-03T14:44:19;3.73;;;3.47;;
2225;SDS011;1119;48.288;8.726;2022-09-03T14:47:16;3.17;;;3.07;;
2225;SDS011;1119;48.288;8.726;2022-09-03T14:50:02;3.10;;;3.00;;
2225;SDS011;1119;48.288;8.726;2022-09-03T14:52:52;3.20;;;3.10;;
2225;SDS011;1119;48.288;8.726;2022-09-03T14:55:48;3.30;;;3.10;;
2225;SDS011;1119;48.288;8.726;2022-09-03T14:58:39;2.73;;;2.63;;
2225;SDS011;1119;48.288;8.726;2022-09-03T15:01:22;3.20;;;3.00;;
2225;SDS011;1119;48.288;8.726;2022-09-03T15:04:08;2.90;;;2.80;;
2225;SDS011;1119;48.288;8.726;2022-09-03T15:07:01;3.40;;;3.30;;
2225;SDS011;1119;48.288;8.726;2022-09-03T15:09:44;3.70;;;3.50;;
2225;SDS011;1119;48.288;8.726;2022-09-03T15:12:21;3.17;;;3.07;;
2225;SDS011;1119;48.288;8.726;2022-09-03T15:14:57;3.30;;;3.20;;
2225;SDS011;1119;48.288;8.726;2022-09-03T15:17:38;3.63;;;3.30;;
2225;SDS011;1119;48.288;8.726;2022-09-03T15:20:20;3.17;;;3.07;;
2225;SDS011;1119;48.288;8.726;2022-09-03T15:28:57;2.90;;;2.80;;
2225;SDS011;1119;48.288;8.726;2022-09-03T15:31:46;2.90;;;2.80;;
2225;SDS011;1119;48.288;8.726;2022-09-03T15:37:31;2.70;;;2.60;;
2225;SDS011;1119;48.288;8.726;2022-09-03T15:40:05;2.90;;;2.80;;
2225;SDS011;1119;48.288;8.726;2022-09-03T15:42:49;3.30;;;3.20;;
2225;SDS011;1119;48.288;8.726;2022-09-03T15:45:27;2.70;;;2.60;;
2225;SDS011;1119;48.288;8.726;2022-09-03T15:48:05;3.20;;;3.10;;
2225;SDS011;1119;48.288;8.726;2022-09-03T15:50:51;2.90;;;2.80;;
2225;SDS011;1119;48.288;8.726;2022-09-03T15:53:28;2.80;;;2.70;;
2225;SDS011;1119;48.288;8.726;2022-09-03T15:56:01;3.50;;;3.40;;
2225;SDS011;1119;48.288;8.726;2022-09-03T15:58:47;3.07;;;2.97;;
2225;SDS011;1119;48.288;8.726;2022-09-03T16:01:27;2.80;;;2.60;;
2225;SDS011;1119;48.288;8.726;2022-09-03T16:04:04;2.87;;;2.77;;
2225;SDS011;1119;48.288;8.726;2022-09-03T16:06:48;3.00;;;2.90;;
2225;SDS011;1119;48.288;8.726;2022-09-03T16:09:26;2.43;;;2.33;;
2225;SDS011;1119;48.288;8.726;2022-09-03T16:12:05;2.73;;;2.60;;